WZZ424 EKCH-EYVI
Flight info
| Callsign | WZZ424 |
|---|---|
| Flight time | N/A |
| Altitude | 25000 |
| Route | SIME8A SIMEG L987 ETRUS TESPO VEDEN VAGVO NEDAM OTNAV OTNA2A |
| Aircraft | A320/M-V/N |
Departure
| Time | 2026-05-08 08:13 |
|---|---|
| Airport | Copenhagen Kastrup Airport (EKCH) |
Arrival
| Time | N/A |
|---|---|
| Airport | Vilnius International Airport (EYVI) |
| Time | Latitude | Longitude | Altitude | Speed | Heading |
|---|---|---|---|---|---|
| 2026-05-08 07:17 | 55.62366 | 12.65044 | 21 ft | 0 kts | 285° |
| 2026-05-08 07:54 | 55.62362 | 12.65064 | 21 ft | 3 kts | 285° |
| 2026-05-08 07:54 | 55.62357 | 12.65102 | 23 ft | 3 kts | 285° |
| 2026-05-08 07:54 | 55.62351 | 12.65140 | 21 ft | 3 kts | 278° |
| 2026-05-08 07:55 | 55.62353 | 12.65178 | 23 ft | 3 kts | 235° |
| 2026-05-08 07:55 | 55.62362 | 12.65194 | 24 ft | 1 kts | 202° |
| 2026-05-08 07:55 | 55.62366 | 12.65197 | 24 ft | 0 kts | 182° |
| 2026-05-08 08:09 | 55.62351 | 12.65196 | 22 ft | 5 kts | 182° |
| 2026-05-08 08:09 | 55.62307 | 12.65195 | 21 ft | 7 kts | 177° |
| 2026-05-08 08:09 | 55.62251 | 12.65199 | 22 ft | 9 kts | 180° |
| 2026-05-08 08:09 | 55.62194 | 12.65163 | 25 ft | 9 kts | 210° |
| 2026-05-08 08:10 | 55.62137 | 12.65100 | 24 ft | 12 kts | 214° |
| 2026-05-08 08:10 | 55.62045 | 12.64990 | 20 ft | 19 kts | 213° |
| 2026-05-08 08:10 | 55.61926 | 12.64856 | 16 ft | 22 kts | 213° |
| 2026-05-08 08:10 | 55.61801 | 12.64711 | 20 ft | 21 kts | 213° |
| 2026-05-08 08:11 | 55.61680 | 12.64571 | 22 ft | 19 kts | 216° |
| 2026-05-08 08:11 | 55.61649 | 12.64370 | 24 ft | 14 kts | 265° |
| 2026-05-08 08:11 | 55.61647 | 12.64318 | 25 ft | 0 kts | 265° |
| 2026-05-08 08:11 | 55.61645 | 12.64267 | 26 ft | 8 kts | 267° |
| 2026-05-08 08:12 | 55.61641 | 12.64156 | 28 ft | 10 kts | 263° |
| 2026-05-08 08:12 | 55.61605 | 12.64037 | 26 ft | 13 kts | 224° |
| 2026-05-08 08:12 | 55.61521 | 12.63902 | 24 ft | 18 kts | 221° |
| 2026-05-08 08:12 | 55.61397 | 12.63713 | 24 ft | 48 kts | 219° |
| 2026-05-08 08:13 | 55.60937 | 12.63004 | 22 ft | 124 kts | 220° |
| 2026-05-08 08:13 | 55.60130 | 12.61782 | 152 ft | 172 kts | 220° |
| 2026-05-08 08:13 | 55.59351 | 12.60122 | 1013 ft | 173 kts | 250° |
| 2026-05-08 08:13 | 55.59421 | 12.58128 | 2213 ft | 166 kts | 300° |
| 2026-05-08 08:14 | 55.60275 | 12.56770 | 2895 ft | 174 kts | 343° |
| 2026-05-08 08:14 | 55.61487 | 12.56718 | 3439 ft | 182 kts | 24° |
| 2026-05-08 08:14 | 55.62477 | 12.58133 | 3965 ft | 192 kts | 61° |
| 2026-05-08 08:14 | 55.62990 | 12.60466 | 4447 ft | 210 kts | 76° |
| 2026-05-08 08:15 | 55.63203 | 12.63131 | 4902 ft | 232 kts | 84° |
| 2026-05-08 08:15 | 55.63507 | 12.66056 | 5448 ft | 250 kts | 71° |
| 2026-05-08 08:15 | 55.64321 | 12.68811 | 6317 ft | 255 kts | 57° |
| 2026-05-08 08:15 | 55.65450 | 12.71276 | 7218 ft | 260 kts | 48° |
| 2026-05-08 08:16 | 55.66822 | 12.73433 | 8022 ft | 268 kts | 41° |
| 2026-05-08 08:16 | 55.68052 | 12.75899 | 8841 ft | 269 kts | 63° |
| 2026-05-08 08:16 | 55.68683 | 12.79013 | 9687 ft | 271 kts | 82° |
| 2026-05-08 08:16 | 55.68683 | 12.82350 | 10493 ft | 274 kts | 101° |
| 2026-05-08 08:17 | 55.68054 | 12.85551 | 11240 ft | 278 kts | 120° |
| 2026-05-08 08:17 | 55.66840 | 12.88235 | 11987 ft | 283 kts | 139° |
| 2026-05-08 08:17 | 55.65148 | 12.90065 | 12745 ft | 289 kts | 158° |
| 2026-05-08 08:17 | 55.63225 | 12.91155 | 13525 ft | 293 kts | 168° |
| 2026-05-08 08:18 | 55.61872 | 12.91394 | 14037 ft | 297 kts | 180° |
| 2026-05-08 08:18 | 55.59825 | 12.90747 | 14686 ft | 304 kts | 200° |
| 2026-05-08 08:18 | 55.57989 | 12.88858 | 15347 ft | 309 kts | 220° |
| 2026-05-08 08:18 | 55.56463 | 12.86142 | 16038 ft | 313 kts | 225° |
| 2026-05-08 08:19 | 55.54952 | 12.83353 | 16728 ft | 315 kts | 225° |
| 2026-05-08 08:19 | 55.53391 | 12.80610 | 17403 ft | 318 kts | 218° |
| 2026-05-08 08:19 | 55.51496 | 12.78608 | 18068 ft | 320 kts | 200° |
| 2026-05-08 08:19 | 55.49317 | 12.77772 | 18625 ft | 325 kts | 182° |
| 2026-05-08 08:20 | 55.47056 | 12.78055 | 18736 ft | 326 kts | 173° |
| 2026-05-08 08:20 | 55.44808 | 12.78568 | 18836 ft | 325 kts | 172° |
| 2026-05-08 08:20 | 55.42561 | 12.79084 | 18924 ft | 326 kts | 172° |
| 2026-05-08 08:20 | 55.40337 | 12.79584 | 19002 ft | 327 kts | 173° |
| 2026-05-08 08:21 | 55.38084 | 12.80161 | 19006 ft | 326 kts | 166° |
| 2026-05-08 08:21 | 55.35973 | 12.81594 | 19005 ft | 326 kts | 149° |
| 2026-05-08 08:21 | 55.34174 | 12.83998 | 19004 ft | 326 kts | 134° |
| 2026-05-08 08:21 | 55.32825 | 12.87177 | 19004 ft | 326 kts | 118° |
| 2026-05-08 08:22 | 55.32023 | 12.90898 | 19004 ft | 326 kts | 102° |
| 2026-05-08 08:22 | 55.31582 | 12.94808 | 19000 ft | 327 kts | 101° |
| 2026-05-08 08:22 | 55.31137 | 12.98712 | 18999 ft | 326 kts | 101° |
| 2026-05-08 08:22 | 55.30684 | 13.02613 | 19003 ft | 326 kts | 102° |
| 2026-05-08 08:23 | 55.30226 | 13.06516 | 18998 ft | 327 kts | 102° |
| 2026-05-08 08:23 | 55.29765 | 13.10423 | 18998 ft | 327 kts | 102° |
| 2026-05-08 08:23 | 55.29304 | 13.14321 | 18997 ft | 326 kts | 102° |
| 2026-05-08 08:23 | 55.28841 | 13.18224 | 18999 ft | 326 kts | 102° |
| 2026-05-08 08:24 | 55.28377 | 13.22121 | 19000 ft | 327 kts | 102° |
| 2026-05-08 08:24 | 55.27912 | 13.26027 | 19001 ft | 327 kts | 102° |
| 2026-05-08 08:24 | 55.27445 | 13.29924 | 19000 ft | 326 kts | 102° |
| 2026-05-08 08:24 | 55.26978 | 13.33821 | 19000 ft | 326 kts | 102° |
| 2026-05-08 08:25 | 55.26507 | 13.37730 | 19093 ft | 329 kts | 102° |
| 2026-05-08 08:25 | 55.26032 | 13.41666 | 19617 ft | 330 kts | 102° |
| 2026-05-08 08:25 | 55.25572 | 13.45557 | 20275 ft | 330 kts | 99° |
| 2026-05-08 08:25 | 55.25340 | 13.49580 | 20835 ft | 333 kts | 91° |
| 2026-05-08 08:26 | 55.25443 | 13.53652 | 21381 ft | 336 kts | 83° |
| 2026-05-08 08:26 | 55.25853 | 13.57697 | 21952 ft | 338 kts | 78° |
| 2026-05-08 08:26 | 55.26327 | 13.61747 | 22486 ft | 342 kts | 78° |
| 2026-05-08 08:26 | 55.26804 | 13.65929 | 22646 ft | 357 kts | 78° |
| 2026-05-08 08:27 | 55.27296 | 13.70287 | 22793 ft | 371 kts | 79° |
| 2026-05-08 08:27 | 55.27802 | 13.74809 | 22944 ft | 385 kts | 79° |
| 2026-05-08 08:27 | 55.28324 | 13.79492 | 23134 ft | 397 kts | 79° |
| 2026-05-08 08:27 | 55.28855 | 13.84270 | 23604 ft | 400 kts | 79° |
| 2026-05-08 08:28 | 55.29389 | 13.89086 | 24117 ft | 402 kts | 79° |
| 2026-05-08 08:28 | 55.29922 | 13.93910 | 24616 ft | 403 kts | 79° |
| 2026-05-08 08:28 | 55.30457 | 13.98771 | 24737 ft | 405 kts | 79° |
| 2026-05-08 08:28 | 55.30987 | 14.03616 | 24839 ft | 404 kts | 79° |
| 2026-05-08 08:29 | 55.31516 | 14.08464 | 24932 ft | 405 kts | 79° |
| 2026-05-08 08:29 | 55.32043 | 14.13314 | 25004 ft | 405 kts | 79° |
| 2026-05-08 08:29 | 55.32570 | 14.18188 | 25011 ft | 406 kts | 79° |
| 2026-05-08 08:29 | 55.33089 | 14.23002 | 25010 ft | 405 kts | 79° |
| 2026-05-08 08:30 | 55.33610 | 14.27857 | 25010 ft | 404 kts | 79° |
| 2026-05-08 08:30 | 55.34129 | 14.32708 | 25011 ft | 404 kts | 79° |
| 2026-05-08 08:30 | 55.35163 | 14.42428 | 25014 ft | 405 kts | 79° |
| 2026-05-08 08:31 | 55.35677 | 14.47289 | 25012 ft | 405 kts | 79° |
| 2026-05-08 08:31 | 55.36190 | 14.52160 | 25012 ft | 405 kts | 79° |
| 2026-05-08 08:31 | 55.36700 | 14.57024 | 25013 ft | 405 kts | 79° |
| 2026-05-08 08:31 | 55.37210 | 14.61910 | 25013 ft | 405 kts | 79° |
| 2026-05-08 08:32 | 55.37718 | 14.66789 | 25016 ft | 405 kts | 79° |
| 2026-05-08 08:32 | 55.38222 | 14.71660 | 25014 ft | 405 kts | 79° |
| 2026-05-08 08:32 | 55.38725 | 14.76534 | 25014 ft | 405 kts | 79° |
| 2026-05-08 08:32 | 55.39227 | 14.81422 | 25016 ft | 405 kts | 79° |
| 2026-05-08 08:33 | 55.39726 | 14.86297 | 25016 ft | 405 kts | 79° |
| 2026-05-08 08:33 | 55.40222 | 14.91170 | 25018 ft | 404 kts | 79° |
| 2026-05-08 08:33 | 55.40717 | 14.96047 | 25014 ft | 404 kts | 79° |
| 2026-05-08 08:33 | 55.41210 | 15.00926 | 25012 ft | 405 kts | 80° |
| 2026-05-08 08:34 | 55.41694 | 15.05733 | 25013 ft | 404 kts | 80° |
| 2026-05-08 08:34 | 55.42188 | 15.10670 | 25013 ft | 404 kts | 80° |
| 2026-05-08 08:34 | 55.42663 | 15.15428 | 25013 ft | 406 kts | 80° |